Weather at Fortescue - Dave Forrest Aerodrome

Public forecast

Using degrees Celsius for public forecast. Weather courtesy of forecast.io.

Closest aviation weather report (METAR) to Fortescue - Dave Forrest Aerodrome

Closest report is Port Hedland International Airport, 123.5 nm (228.7 km) NNW.

2024/05/20 05:00 (retrieved 40 minutes ago)

YPPD 200500Z AUTO 11015KT 9999 // NCD 30/05 Q1016 RF000/0000

Closest aviation forecast (TAF) to Fortescue - Dave Forrest Aerodrome

Forecast is more than 6 hours old.

Closest forecast is Geraldton Airport, 467.0 nm (864.9 km) SSW.

2024/05/19 22:00 Ammendment (retrieved 8 hours ago)

TAF AMD YGEL 192233Z 1922/2018 03014KT CAVOK FM200100 03016G26KT CAVOK FM200500 04010KT CAVOK